Decoded Metar for LQBK (BANJA LUKA in BOSNIA-HERCEGOVINA) (IATA:N/A) | Meteo·Mobile Aviation Weather
aviador You're here:

LQBK Decoded Metar

BANJA LUKA in BOSNIA-HERCEGOVINA
Report Time2018-09-22 03:00:00
UTC Time2018-09-22 03:30:52
Flight Rules vfr VFR
Wind170° at 04 kt
W.Decomp.*RWY 17: 4.0 kt HW 0.1 kt LCW
W.Rank170° ranks 2
Current wind is above 170° avg. (3.6)
Visibility9999 m
Phenomena:N/A
Clouds:N/A
Expected CloudBase > 800 ft AGL from Temp-Dew spread
CeilingNone
Temp17°C (ISA +3)
Dew Point15°C (88% RH)
QNH1015 hPa
Density Alt889 ft
Elevation400 ft
Report Wrong Elevation
Raw Report
LQBK 220300Z 17004KT CAVOK 17/15 Q1015 NOSIG=

Extra information for LQBK:More info

Metar Taf Metar & Taf Last 4 Metars F.Rules Stats Wind Profile Meteogram Temp Stats Airport Information Weather charts Add Link Nearby VenuesMetar ALERT Operation Metar Decoded Social comments